Terminal Aerodrome Forecast
Issued by NWS

Home | Current Version | Previous Version | Text Only | Print | Product List | Glossary On
Versions: 1 2 3 4 5 6 7 8 9 10 11 12
507
FTUS43 KIWX 240520
TAFSBN
TAF
KSBN 240520Z 2406/2506 20007KT P6SM FEW250
     FM241600 20016G25KT P6SM FEW120 SCT200
     FM250300 25012KT P6SM BKN090=

USA.gov is the U.S. government's official web portal to all federal, state and local government web resources and services.